Terminal Aerodrome Forecast
Issued by NWS

Home | Current Version | Previous Version | Text Only | Print | Product List | Glossary On
Versions: 1 2 3 4 5 6 7 8 9 10 11 12 13 14
000
FTUS42 KMLB 242015 AAA
TAFFPR
TAF AMD
KFPR 242015Z 2420/2518 22018G29KT P6SM VCTS SCT050CB BKN070
      TEMPO 2420/2424 VRB25G34KT 2SM TSRA BKN025CB
     FM250000 23014G22KT P6SM VCTS SCT030CB OVC050
      TEMPO 2500/2503 2SM TSRA BKN025CB OVC050
     FM250300 22012G20KT P6SM SCT030 OVC050
     FM251400 25019G26KT P6SM SCT030 BKN050=

USA.gov is the U.S. government's official web portal to all federal, state and local government web resources and services.